createdAt,value
2023-05-16T00:05:57.974Z,13.60
2023-05-16T00:21:00.452Z,13.10
2023-05-16T00:36:05.743Z,12.20
2023-05-16T00:51:09.300Z,11.40
2023-05-16T01:06:12.515Z,10.70
2023-05-16T01:21:31.928Z,10.70
2023-05-16T01:37:12.948Z,10.50
2023-05-16T01:52:26.941Z,10.50
2023-05-16T02:07:30.484Z,10.10
2023-05-16T02:22:34.100Z,10.20
2023-05-16T02:37:36.895Z,10.20
2023-05-16T02:52:39.238Z,9.90
2023-05-16T03:07:41.596Z,9.40
2023-05-16T03:22:45.133Z,9.40
2023-05-16T03:37:47.600Z,9.30
2023-05-16T03:52:52.935Z,8.90
2023-05-16T04:07:55.339Z,9.20
2023-05-16T04:22:57.773Z,9.20
2023-05-16T04:38:00.180Z,9.60
2023-05-16T04:53:02.559Z,11.70
2023-05-16T05:08:05.154Z,11.20
2023-05-16T05:23:07.709Z,11.10
2023-05-16T05:38:10.266Z,11.60
2023-05-16T05:53:13.012Z,12.00
2023-05-16T06:08:17.266Z,13.00
2023-05-16T06:23:22.187Z,12.00
2023-05-16T06:38:24.735Z,10.10
2023-05-16T06:53:28.993Z,10.70
2023-05-16T07:08:32.803Z,11.10
2023-05-16T07:23:35.330Z,12.00
2023-05-16T07:38:37.973Z,11.40
2023-05-16T07:53:41.123Z,11.20
2023-05-16T08:08:50.571Z,11.50
2023-05-16T08:23:53.566Z,11.60
2023-05-16T08:38:56.005Z,12.50
2023-05-16T08:54:03.313Z,12.50
2023-05-16T09:09:08.133Z,12.80
2023-05-16T09:24:10.870Z,12.30
2023-05-16T09:39:15.767Z,13.10
2023-05-16T09:54:33.638Z,13.40
2023-05-16T10:09:37.034Z,14.00
2023-05-16T10:25:25.866Z,14.30
2023-05-16T10:40:30.775Z,13.60
2023-05-16T10:55:33.198Z,14.00
2023-05-16T11:10:35.781Z,14.50
2023-05-16T11:25:41.048Z,14.80
2023-05-16T11:40:44.928Z,15.20
2023-05-16T11:55:54.795Z,15.00
2023-05-16T12:10:58.670Z,14.30
2023-05-16T12:26:07.837Z,14.00
2023-05-16T12:41:10.541Z,15.40
2023-05-16T12:56:14.489Z,15.10
2023-05-16T13:11:17.582Z,15.20
2023-05-16T13:26:20.142Z,15.40
2023-05-16T13:41:22.596Z,15.30
2023-05-16T13:56:26.660Z,14.40
2023-05-16T14:11:29.690Z,14.70
2023-05-16T14:26:32.339Z,14.40
2023-05-16T14:41:34.715Z,14.40
2023-05-16T14:56:37.132Z,14.30
2023-05-16T15:11:39.617Z,14.30
2023-05-16T15:26:43.688Z,14.80
2023-05-16T15:42:08.651Z,14.60
2023-05-16T15:57:08.547Z,14.60
2023-05-16T16:27:15.219Z,14.60
2023-05-16T16:42:17.676Z,13.70
2023-05-16T16:57:20.293Z,13.80
2023-05-16T17:12:22.952Z,14.10
2023-05-16T17:27:26.832Z,14.10
2023-05-16T17:42:29.157Z,14.30
2023-05-16T17:57:32.746Z,14.20
2023-05-16T18:12:37.943Z,13.70
2023-05-16T18:27:41.209Z,13.70
2023-05-16T18:42:44.337Z,13.50
2023-05-16T18:57:47.148Z,13.80
2023-05-16T19:12:49.635Z,13.90
2023-05-16T19:27:52.704Z,14.30
2023-05-16T19:42:55.014Z,14.30
2023-05-16T19:57:57.971Z,14.40
2023-05-16T20:13:00.813Z,15.10
2023-05-16T20:28:04.072Z,14.40
2023-05-16T20:43:06.867Z,14.40
2023-05-16T20:58:09.261Z,13.70
2023-05-16T21:13:11.802Z,13.20
2023-05-16T21:28:14.207Z,13.30
2023-05-16T21:43:16.875Z,13.10
2023-05-16T21:58:19.237Z,11.70
2023-05-16T22:13:21.740Z,11.50
2023-05-16T22:28:24.470Z,11.90
2023-05-16T22:43:26.985Z,12.80
2023-05-16T22:58:30.098Z,12.90
2023-05-16T23:13:32.533Z,13.30
2023-05-16T23:28:35.712Z,13.40
2023-05-16T23:43:38.128Z,13.30
2023-05-16T23:58:40.669Z,13.30
